Time;durP1;ratioP1;P1;durP2;ratioP2;P2;SDS_P1;SDS_P2;PMS_P1;PMS_P2;Temp;Humidity;BMP_temperature;BMP_pressure;BME280_temperature;BME280_humidity;BME280_pressure;Samples;Min_cycle;Max_cycle;Signal;HPM_P1;HPM_P2
2020/12/25 00:00:16;;;;;;;4.40;3.10;;;;;;;20.63;72.48;156553.39;1680235;83;21685;-79
2020/12/25 00:02:48;;;;;;;5.58;2.90;;;;;;;22.34;82.65;157010.13;1683656;83;21287;-81
2020/12/25 00:05:21;;;;;;;4.03;2.67;;;;;;;21.83;65.77;156873.69;1688536;83;21250;-81
2020/12/25 00:07:53;;;;;;;3.85;2.25;;;;;;;21.82;72.30;156869.69;1682983;83;21352;-80
2020/12/25 00:10:25;;;;;;;4.35;2.70;;;;;;;21.38;73.00;156753.19;1683429;84;21884;-80
2020/12/25 00:12:58;;;;;;;3.92;2.47;;;;;;;21.62;65.15;156818.11;1650673;85;21666;-80
2020/12/25 00:15:30;;;;;;;3.27;2.15;;;;;;;21.01;83.75;156656.63;1679572;84;21258;-80
2020/12/25 00:18:02;;;;;;;5.55;2.40;;;;;;;21.32;70.12;156738.63;1700823;84;21317;-80
2020/12/25 00:20:36;;;;;;;5.87;2.72;;;;;;;21.34;67.38;156742.64;1701215;84;21242;-80
2020/12/25 00:23:08;;;;;;;5.85;3.27;;;;;;;21.20;65.31;156706.88;1677919;85;21755;-81
2020/12/25 00:25:41;;;;;;;6.15;2.77;;;;;;;21.17;65.56;156698.97;1695557;84;21175;-79
2020/12/25 00:28:13;;;;;;;3.77;2.42;;;;;;;25.16;100.00;157760.75;1717065;82;21301;-79
2020/12/25 00:30:46;;;;;;;3.77;2.55;;;;;;;32.30;100.00;159672.53;1724921;82;21234;-79
2020/12/25 00:33:18;;;;;;;5.70;2.62;;;;;;;25.67;83.61;157898.78;1721641;82;21234;-78
2020/12/25 00:35:50;;;;;;;3.67;2.25;;;;;;;23.88;63.16;157421.03;1662836;86;21243;-79
2020/12/25 00:38:22;;;;;;;3.65;2.20;;;;;;;23.33;63.68;157273.81;1721213;81;21214;-78
2020/12/25 00:40:55;;;;;;;2.35;1.67;;;;;;;22.62;70.40;157084.31;1721488;82;21778;-78
2020/12/25 00:43:27;;;;;;;1.17;1.05;;;;;;;33.47;100.00;159987.69;1719555;82;21303;-78
2020/12/25 00:45:59;;;;;;;1.35;1.25;;;;;;;27.77;100.00;158459.78;1722994;82;21312;-78
2020/12/25 00:48:32;;;;;;;1.87;1.25;;;;;;;25.64;98.25;157890.80;1690491;85;21705;-78
2020/12/25 00:51:05;;;;;;;1.10;1.00;;;;;;;25.26;69.28;157788.59;1707339;83;21286;-78
2020/12/25 00:53:37;;;;;;;1.42;1.25;;;;;;;35.55;100.00;160546.61;1719531;83;21185;-78
2020/12/25 00:56:14;;;;;;;0.82;0.82;;;;;;;35.39;100.00;160502.42;1687964;85;21214;-78
2020/12/25 00:58:47;;;;;;;1.12;0.93;;;;;;;25.68;61.52;157900.13;1717827;82;21765;-75
2020/12/25 01:01:20;;;;;;;1.27;1.17;;;;;;;23.27;68.04;157257.88;1712621;84;21198;-76
2020/12/25 01:03:52;;;;;;;1.90;1.00;;;;;;;27.63;77.00;158422.55;1691554;84;21809;-76
2020/12/25 01:06:25;;;;;;;1.52;1.15;;;;;;;30.03;100.00;159062.98;1736215;82;21188;-77
2020/12/25 01:08:57;;;;;;;1.70;1.30;;;;;;;27.34;100.00;158342.73;1730663;82;21632;-76
2020/12/25 01:11:29;;;;;;;1.05;0.80;;;;;;;24.48;80.51;157580.19;1719977;82;21373;-76
2020/12/25 01:14:02;;;;;;;1.67;0.90;;;;;;;24.51;69.26;157586.86;1703920;84;21337;-77
2020/12/25 01:16:34;;;;;;;1.05;1.00;;;;;;;23.88;67.33;157421.03;1708980;84;21344;-75
2020/12/25 01:19:07;;;;;;;2.20;1.00;;;;;;;23.34;67.31;157263.72;1718893;82;21206;-75
2020/12/25 01:21:40;;;;;;;2.35;1.40;;;;;;;23.33;65.52;157272.47;1706987;83;21193;-76
2020/12/25 01:24:12;;;;;;;3.98;1.22;;;;;;;22.55;63.81;157064.44;1704615;82;21333;-76
2020/12/25 01:26:45;;;;;;;2.02;1.32;;;;;;;22.30;60.92;156999.45;1688433;84;21198;-77
2020/12/25 01:29:18;;;;;;;2.47;1.60;;;;;;;25.88;100.00;157954.59;1687121;84;21154;-77
2020/12/25 01:31:50;;;;;;;2.37;2.10;;;;;;;23.06;77.93;157200.94;1699685;84;21317;-77
2020/12/25 01:34:24;;;;;;;1.77;1.47;;;;;;;22.91;70.48;157161.12;1697823;82;21325;-77
2020/12/25 01:36:56;;;;;;;2.27;1.45;;;;;;;22.21;65.48;156974.33;1703861;83;21249;-77
2020/12/25 01:39:29;;;;;;;1.70;1.40;;;;;;;22.45;65.78;157037.95;1687153;84;21350;-76
2020/12/25 01:42:01;;;;;;;2.02;1.20;;;;;;;22.39;67.07;156831.06;1678203;85;21202;-75
2020/12/25 01:44:34;;;;;;;2.45;1.70;;;;;;;22.18;67.60;92663.23;1689115;84;21365;-75
2020/12/25 01:47:06;;;;;;;1.62;1.30;;;;;;;21.88;68.68;72742.46;1699140;84;21325;-76
2020/12/25 01:49:38;;;;;;;1.60;1.25;;;;;;;21.81;64.69;147234.69;1706401;83;21199;-76
2020/12/25 01:52:12;;;;;;;2.20;1.50;;;;;;;21.81;66.66;117750.53;1704407;84;21225;-76
2020/12/25 01:54:45;;;;;;;2.42;1.50;;;;;;;21.46;83.53;156775.69;1710143;83;21287;-76
2020/12/25 01:57:17;;;;;;;1.90;1.25;;;;;;;21.38;78.79;156753.19;1706267;84;21246;-76
2020/12/25 01:59:51;;;;;;;2.45;1.40;;;;;;;21.73;69.67;156847.23;1702992;84;21194;-76
2020/12/25 02:02:24;;;;;;;3.67;1.12;;;;;;;21.48;66.43;156781.00;1721857;82;21227;-76
2020/12/25 02:04:57;;;;;;;2.20;1.70;;;;;;;21.79;67.61;156861.78;1702325;84;21805;-76
2020/12/25 02:07:29;;;;;;;4.10;1.77;;;;;;;21.42;67.07;156765.09;1684705;82;21333;-75
2020/12/25 02:10:02;;;;;;;3.55;1.90;;;;;;;21.32;66.02;156737.33;1714597;82;21313;-76
2020/12/25 02:12:37;;;;;;;3.40;2.40;;;;;;;21.46;66.98;156774.39;1703489;84;21225;-76
2020/12/25 02:15:09;;;;;;;3.95;2.30;;;;;;;21.41;67.37;156762.44;1699943;84;21150;-75
2020/12/25 02:17:47;;;;;;;3.12;2.22;;;;;;;21.17;65.63;156698.97;1683438;84;21186;-75
2020/12/25 02:20:19;;;;;;;3.80;2.20;;;;;;;20.64;64.42;156557.39;1702546;82;21408;-75
2020/12/25 02:22:51;;;;;;;3.00;2.30;;;;;;;21.27;66.56;156724.08;1674446;83;21262;-76
2020/12/25 02:25:24;;;;;;;3.25;2.37;;;;;;;21.10;64.12;156679.13;1654324;87;21191;-76
2020/12/25 02:27:56;;;;;;;3.45;2.62;;;;;;;20.66;62.64;156562.63;1714707;83;21330;-76
2020/12/25 02:30:28;;;;;;;4.17;2.45;;;;;;;20.94;63.28;156638.12;1679212;84;21393;-76
2020/12/25 02:33:01;;;;;;;3.85;2.40;;;;;;;21.39;62.65;156757.19;1684567;83;21401;-75
2020/12/25 02:35:33;;;;;;;3.62;2.62;;;;;;;21.38;63.23;156754.53;1700586;83;21354;-77
2020/12/25 02:38:05;;;;;;;4.30;2.87;;;;;;;21.36;64.71;156749.23;1695517;83;21276;-76
2020/12/25 02:40:38;;;;;;;4.08;2.95;;;;;;;20.96;63.26;156642.08;1691668;83;21198;-78
2020/12/25 02:43:11;;;;;;;5.35;3.70;;;;;;;21.12;64.94;156684.42;1686084;84;21215;-77
2020/12/25 02:45:44;;;;;;;5.60;3.58;;;;;;;20.75;62.48;156585.13;1724331;82;21336;-76
2020/12/25 02:48:16;;;;;;;6.45;3.60;;;;;;;20.90;63.26;156626.17;1705735;83;21384;-77
2020/12/25 02:50:49;;;;;;;6.15;3.35;;;;;;;20.40;62.19;156492.56;1729714;82;21321;-77
2020/12/25 02:53:22;;;;;;;6.47;3.65;;;;;;;20.53;62.14;156528.30;1697688;83;21485;-77
2020/12/25 02:55:55;;;;;;;6.00;3.42;;;;;;;20.38;62.65;156487.27;1712659;83;21183;-77
2020/12/25 02:58:27;;;;;;;6.87;3.98;;;;;;;21.04;64.44;156663.22;1709156;83;21254;-77
2020/12/25 03:01:00;;;;;;;8.33;4.33;;;;;;;20.82;61.64;156603.73;1726844;82;21379;-77
2020/12/25 03:03:33;;;;;;;7.12;3.70;;;;;;;21.00;63.10;156652.67;1730553;82;21309;-77
2020/12/25 03:06:06;;;;;;;7.55;4.15;;;;;;;20.87;61.50;156616.92;1727483;82;21320;-77
2020/12/25 03:08:39;;;;;;;9.35;4.47;;;;;;;20.99;62.32;156651.31;1728807;82;21196;-77
2020/12/25 03:11:12;;;;;;;8.53;5.08;;;;;;;20.94;64.06;156638.12;1729875;82;21323;-78
2020/12/25 03:13:44;;;;;;;8.55;4.72;;;;;;;20.99;64.21;156651.31;1724315;82;21314;-77
2020/12/25 03:16:17;;;;;;;9.30;5.15;;;;;;;21.19;62.49;156702.92;1690535;84;21385;-77
2020/12/25 03:18:50;;;;;;;7.90;4.78;;;;;;;20.68;62.73;156567.94;1698274;84;21911;-78
2020/12/25 03:21:22;;;;;;;11.38;5.53;;;;;;;21.57;61.88;156804.86;1720864;82;21193;-79
2020/12/25 03:23:54;;;;;;;10.13;5.40;;;;;;;21.12;62.62;156684.42;1715146;83;21301;-79
2020/12/25 03:26:26;;;;;;;12.30;5.95;;;;;;;21.03;62.09;156661.92;1720493;83;21859;-79
2020/12/25 03:28:59;;;;;;;10.35;5.55;;;;;;;21.27;60.70;156725.44;1721842;83;21328;-78
2020/12/25 03:31:32;;;;;;;12.45;5.53;;;;;;;21.11;61.76;156681.78;1721666;83;21348;-78
2020/12/25 03:34:06;;;;;;;13.35;6.12;;;;;;;21.54;62.58;156795.56;1714598;83;21238;-78
2020/12/25 03:36:38;;;;;;;11.05;6.00;;;;;;;21.13;62.01;156688.38;1721358;83;21224;-77
2020/12/25 03:39:11;;;;;;;16.23;7.12;;;;;;;21.14;61.25;156689.67;1720657;83;21225;-77
2020/12/25 03:41:43;;;;;;;14.30;6.50;;;;;;;20.76;61.67;156587.78;1712941;83;21182;-77
2020/12/25 03:44:16;;;;;;;15.98;8.20;;;;;;;21.04;62.26;156663.22;1719819;83;21201;-78
2020/12/25 03:46:48;;;;;;;16.12;7.05;;;;;;;20.87;62.04;156616.92;1717976;83;21344;-78
2020/12/25 03:49:21;;;;;;;18.23;8.20;;;;;;;21.13;61.09;156688.38;1720893;83;21800;-78
2020/12/25 03:51:54;;;;;;;21.90;9.95;;;;;;;21.12;61.37;156684.42;1715615;83;21700;-79
2020/12/25 03:54:27;;;;;;;17.05;7.03;;;;;;;21.43;61.58;156767.73;1719921;83;21221;-79
2020/12/25 03:56:59;;;;;;;17.87;8.15;;;;;;;21.32;60.41;156738.63;1714164;83;21190;-78
2020/12/25 03:59:32;;;;;;;18.42;7.72;;;;;;;21.21;61.64;156708.22;1706053;83;21412;-78
2020/12/25 04:02:04;;;;;;;19.65;8.60;;;;;;;21.50;62.60;156786.30;1698268;84;21182;-79
2020/12/25 04:04:37;;;;;;;18.75;8.40;;;;;;;21.52;62.28;156791.59;1705196;84;21789;-78
2020/12/25 04:07:09;;;;;;;19.35;8.45;;;;;;;21.49;61.94;156783.66;1714791;83;21171;-80
2020/12/25 04:09:42;;;;;;;17.82;9.33;;;;;;;21.68;62.36;156833.97;1708584;82;21251;-78
2020/12/25 04:12:14;;;;;;;19.23;9.15;;;;;;;21.46;60.91;156774.39;1717052;83;21226;-78
2020/12/25 04:14:47;;;;;;;17.23;8.40;;;;;;;21.39;60.00;156757.19;1717972;83;21240;-78
2020/12/25 04:17:19;;;;;;;20.00;9.18;;;;;;;21.79;61.63;156863.09;1716008;83;21185;-78
2020/12/25 04:19:51;;;;;;;21.45;9.68;;;;;;;21.86;61.83;156882.95;1719694;83;21194;-78
2020/12/25 04:22:24;;;;;;;19.90;8.95;;;;;;;21.77;60.58;156856.48;1722543;83;21232;-77
2020/12/25 04:24:56;;;;;;;21.45;11.48;;;;;;;21.76;59.29;156853.84;1664369;84;21377;-77
2020/12/25 04:27:28;;;;;;;22.15;10.00;;;;;;;21.72;60.94;156844.58;1692061;84;21189;-77
2020/12/25 04:30:00;;;;;;;23.75;10.32;;;;;;;21.80;60.67;156865.75;1679572;83;21860;-77
2020/12/25 04:32:33;;;;;;;24.50;11.80;;;;;;;21.86;59.26;156881.66;1699588;84;21185;-76
2020/12/25 04:35:05;;;;;;;26.17;11.12;;;;;;;22.05;60.81;156931.94;1698417;84;21182;-77
2020/12/25 04:37:37;;;;;;;21.73;10.15;;;;;;;22.09;62.07;156942.55;1688054;83;21182;-77
2020/12/25 04:40:10;;;;;;;23.80;11.55;;;;;;;21.69;59.75;156836.63;1691297;83;21329;-77
2020/12/25 04:42:42;;;;;;;21.95;10.25;;;;;;;21.57;59.72;156804.86;1729846;83;21389;-77
2020/12/25 04:45:16;;;;;;;23.12;10.68;;;;;;;21.84;59.88;156876.34;1708980;83;21218;-82
2020/12/25 04:47:48;;;;;;;23.98;11.22;;;;;;;21.67;58.82;156831.33;1692165;84;21719;-78
2020/12/25 04:50:21;;;;;;;26.75;10.82;;;;;;;21.97;60.38;156910.78;1640603;86;21262;-77
2020/12/25 04:52:53;;;;;;;25.82;10.68;;;;;;;21.98;60.47;156913.42;1709121;82;21855;-78
2020/12/25 04:55:25;;;;;;;22.27;11.20;;;;;;;21.43;58.65;156766.44;1708753;82;21314;-80
2020/12/25 04:58:00;;;;;;;28.02;10.20;;;;;;;21.72;61.89;156843.23;1698212;83;21325;-83
2020/12/25 05:00:33;;;;;;;25.52;11.97;;;;;;;21.79;59.55;156863.09;1699289;84;21265;-90
2020/12/25 05:03:07;;;;;;;23.65;10.50;;;;;;;21.96;61.15;156909.42;1701991;82;21348;-78
2020/12/25 05:05:39;;;;;;;27.17;12.90;;;;;;;21.89;59.71;156890.91;1680235;84;21325;-84
2020/12/25 05:08:12;;;;;;;25.85;11.85;;;;;;;21.88;62.12;156888.25;1694680;83;21385;-82
2020/12/25 05:10:44;;;;;;;23.90;11.18;;;;;;;21.96;60.42;156909.42;1696874;84;21827;-79
2020/12/25 05:13:19;;;;;;;23.05;11.65;;;;;;;21.92;60.63;156898.86;1650769;85;21198;-78
2020/12/25 05:15:51;;;;;;;23.92;11.93;;;;;;;21.96;60.94;156908.13;1650840;85;21386;-78
2020/12/25 05:18:25;;;;;;;26.33;11.83;;;;;;;21.95;60.11;156906.77;1706664;84;21206;-87
2020/12/25 05:20:59;;;;;;;29.20;14.15;;;;;;;22.20;58.60;156971.69;1700631;84;21184;-79
2020/12/25 05:23:32;;;;;;;25.02;11.48;;;;;;;21.86;59.44;156882.95;1683623;85;21222;-79
2020/12/25 05:26:07;;;;;;;33.33;13.93;;;;;;;21.77;60.39;156856.48;1693418;83;21349;-79
2020/12/25 05:28:42;;;;;;;27.60;12.85;;;;;;;21.45;59.75;156773.05;1701426;83;21341;-80
2020/12/25 05:31:15;;;;;;;30.82;13.72;;;;;;;21.38;59.77;156753.19;1711973;84;21234;-80
2020/12/25 05:33:51;;;;;;;29.27;15.15;;;;;;;21.71;60.49;156841.94;1712188;84;21284;-79
2020/12/25 05:36:29;;;;;;;31.12;14.73;;;;;;;21.47;58.66;156778.34;1711886;83;21214;-81
2020/12/25 05:39:03;;;;;;;32.83;13.28;;;;;;;21.40;59.57;156758.48;1691662;83;21198;-79
2020/12/25 05:41:35;;;;;;;32.73;13.62;;;;;;;21.47;59.66;156777.05;1720259;83;21808;-78
2020/12/25 05:44:08;;;;;;;30.82;14.13;;;;;;;21.69;61.05;156835.33;1686770;84;21356;-77
2020/12/25 05:46:40;;;;;;;31.17;13.45;;;;;;;21.89;58.65;156890.91;1703246;84;21373;-78
2020/12/25 05:49:13;;;;;;;28.23;13.40;;;;;;;21.82;58.16;156871.05;1702913;84;21199;-79
2020/12/25 05:51:50;;;;;;;32.05;15.40;;;;;;;22.14;58.29;156957.11;1696169;84;21193;-78
2020/12/25 05:54:26;;;;;;;29.98;13.28;;;;;;;22.30;58.17;156998.16;1675458;85;21213;-78
2020/12/25 05:56:59;;;;;;;33.10;13.98;;;;;;;22.37;57.72;157016.72;1688311;83;21206;-78
2020/12/25 05:59:33;;;;;;;35.35;14.07;;;;;;;22.35;58.06;157011.42;1708272;84;21186;-79
2020/12/25 06:02:06;;;;;;;26.52;12.43;;;;;;;22.40;57.75;157025.98;1707096;83;21159;-77
2020/12/25 06:04:38;;;;;;;31.25;15.00;;;;;;;22.46;58.03;157041.91;1707533;84;21209;-78
2020/12/25 06:07:13;;;;;;;26.45;12.68;;;;;;;22.42;57.76;157030.00;1700282;84;21199;-78
2020/12/25 06:09:46;;;;;;;30.02;13.70;;;;;;;21.98;57.96;156913.42;1696704;84;21179;-78
2020/12/25 06:12:18;;;;;;;36.75;16.73;;;;;;;22.01;58.53;156922.69;1721777;82;21312;-79
2020/12/25 06:14:55;;;;;;;28.32;12.82;;;;;;;22.06;59.30;156935.89;1747415;82;21174;-79
2020/12/25 06:17:27;;;;;;;28.25;13.70;;;;;;;21.88;57.84;156888.25;1736683;82;21317;-79
2020/12/25 06:20:03;;;;;;;30.00;14.83;;;;;;;21.87;58.76;156884.31;1708383;84;21207;-79
2020/12/25 06:22:42;;;;;;;28.80;13.28;;;;;;;21.81;58.87;156867.09;1683423;83;21234;-80
2020/12/25 06:25:16;;;;;;;29.45;13.48;;;;;;;21.62;58.51;156818.11;1702790;83;21293;-79
2020/12/25 06:28:07;;;;;;;25.17;13.13;;;;;;;21.83;59.02;156873.69;1700145;83;21329;-79
2020/12/25 06:30:35;;;;;;;33.23;13.83;;;;;;;21.91;59.80;156896.22;1688958;83;21253;-79
2020/12/25 06:33:07;;;;;;;31.27;14.13;;;;;;;22.02;59.32;156923.98;1705023;83;21267;-81
2020/12/25 06:35:42;;;;;;;31.68;13.58;;;;;;;22.00;59.58;156918.69;1704805;83;21369;-79
2020/12/25 06:38:20;;;;;;;32.53;13.65;;;;;;;21.83;57.41;156873.69;1704318;83;21363;-80
2020/12/25 06:41:00;;;;;;;29.30;14.07;;;;;;;22.04;58.78;156929.28;1701266;84;21762;-82
2020/12/25 06:43:32;;;;;;;29.35;14.30;;;;;;;21.99;58.48;156916.03;1658694;85;21332;-84
2020/12/25 06:46:04;;;;;;;30.05;13.75;;;;;;;21.88;59.32;156888.25;1703688;83;21372;-82
2020/12/25 06:48:38;;;;;;;28.90;13.40;;;;;;;21.77;58.08;156857.78;1689288;84;21364;-82
2020/12/25 06:51:11;;;;;;;28.87;13.25;;;;;;;22.02;59.22;156925.34;1698343;83;21321;-78
2020/12/25 06:53:44;;;;;;;27.00;12.33;;;;;;;22.13;58.71;156954.47;1683880;83;21349;-80
2020/12/25 06:56:21;;;;;;;28.30;12.73;;;;;;;21.74;57.64;156848.53;1702281;83;21709;-84
2020/12/25 06:58:55;;;;;;;28.02;13.93;;;;;;;21.99;59.25;156916.03;1708523;82;21409;-82
2020/12/25 07:01:44;;;;;;;24.47;12.28;;;;;;;22.18;58.40;156966.38;1707305;82;21278;-84
2020/12/25 07:04:32;;;;;;;26.48;13.50;;;;;;;22.29;59.16;156996.80;1696525;82;21842;-84
2020/12/25 07:07:07;;;;;;;26.40;12.98;;;;;;;22.16;57.91;156961.06;1708175;82;21372;-81
2020/12/25 07:09:47;;;;;;;25.40;12.65;;;;;;;22.07;57.70;156937.25;1704006;82;21329;-85
2020/12/25 07:12:24;;;;;;;24.40;12.50;;;;;;;22.44;58.77;157036.59;1704036;82;21356;-83
2020/12/25 07:14:56;;;;;;;25.50;13.78;;;;;;;22.73;58.74;157113.45;1708681;82;21222;-86
2020/12/25 07:17:29;;;;;;;26.55;13.32;;;;;;;22.76;58.72;157120.06;1700513;82;21277;-80
2020/12/25 07:20:05;;;;;;;26.95;12.88;;;;;;;22.83;58.25;157141.23;1705922;82;21369;-82
2020/12/25 07:22:37;;;;;;;27.10;13.05;;;;;;;22.84;57.91;157142.59;1701259;82;21791;-84
2020/12/25 07:25:11;;;;;;;26.30;13.03;;;;;;;22.59;56.31;157075.00;1701416;82;21470;-83
2020/12/25 07:27:44;;;;;;;25.12;12.15;;;;;;;22.93;57.81;157166.42;1705825;83;21206;-84
2020/12/25 07:30:19;;;;;;;23.85;11.97;;;;;;;23.08;57.69;157206.25;1680215;84;21287;-86
2020/12/25 07:32:51;;;;;;;22.40;11.90;;;;;;;23.00;57.73;157184.95;1680978;84;21306;-79
2020/12/25 07:35:24;;;;;;;24.65;12.63;;;;;;;23.00;57.63;157184.95;1682847;83;21171;-80
2020/12/25 07:38:00;;;;;;;27.62;12.63;;;;;;;23.05;56.44;157199.58;1676181;83;21352;-77
2020/12/25 07:40:33;;;;;;;25.72;11.93;;;;;;;23.21;56.45;157240.66;1676161;83;21341;-79
2020/12/25 07:43:07;;;;;;;23.50;12.68;;;;;;;23.35;57.34;157277.77;1661082;85;21220;-78
2020/12/25 07:45:40;;;;;;;23.27;11.63;;;;;;;23.57;57.14;157336.08;1674109;84;21385;-78
2020/12/25 07:48:14;;;;;;;26.20;12.88;;;;;;;23.73;56.88;157381.19;1656403;85;21385;-78
2020/12/25 07:50:47;;;;;;;23.70;12.53;;;;;;;23.83;56.51;157407.75;1681982;83;21208;-79
2020/12/25 07:53:19;;;;;;;21.97;11.75;;;;;;;23.60;55.12;157345.41;1680857;83;21385;-80
2020/12/25 07:55:52;;;;;;;20.88;11.73;;;;;;;23.72;56.63;157377.22;1686289;83;21422;-81
2020/12/25 07:58:24;;;;;;;21.45;12.03;;;;;;;23.68;56.25;157365.25;1683237;83;21449;-79
2020/12/25 08:00:57;;;;;;;21.07;11.80;;;;;;;23.87;54.98;157418.38;1684927;83;21349;-76
2020/12/25 08:03:32;;;;;;;20.57;11.73;;;;;;;23.87;55.33;157417.02;1680347;83;21698;-80
2020/12/25 08:06:05;;;;;;;22.15;11.33;;;;;;;23.71;56.01;157374.56;1681821;83;21388;-77
2020/12/25 08:08:48;;;;;;;22.35;11.12;;;;;;;23.36;55.69;157281.78;1680416;85;21291;-77
2020/12/25 08:11:22;;;;;;;21.75;11.38;;;;;;;23.38;56.49;157287.03;1682124;83;21364;-75
2020/12/25 08:14:10;;;;;;;22.58;12.53;;;;;;;23.25;55.74;157251.27;1679056;83;21833;-78
2020/12/25 08:16:46;;;;;;;22.35;11.63;;;;;;;23.21;56.00;157240.66;1680334;84;21322;-77
2020/12/25 08:19:22;;;;;;;22.77;11.28;;;;;;;23.14;56.44;157223.47;1659742;85;21420;-76
2020/12/25 08:21:59;;;;;;;22.02;11.50;;;;;;;23.36;56.30;157280.42;1680227;84;21620;-83
2020/12/25 08:24:31;;;;;;;23.55;12.50;;;;;;;23.42;56.16;157297.66;1681394;84;21326;-75
2020/12/25 08:27:05;;;;;;;24.92;11.78;;;;;;;23.37;55.90;157283.08;1683321;83;21396;-77
2020/12/25 08:29:40;;;;;;;21.65;11.97;;;;;;;23.34;56.00;157275.11;1714483;82;21356;-77
2020/12/25 08:32:13;;;;;;;24.50;11.83;;;;;;;23.35;56.44;157279.13;1718234;81;22713;-74
2020/12/25 08:34:45;;;;;;;23.42;11.63;;;;;;;23.23;56.09;157245.95;1734889;81;21751;-77
2020/12/25 08:37:20;;;;;;;23.98;12.25;;;;;;;23.17;55.08;157230.08;1737386;81;21261;-78
2020/12/25 08:39:56;;;;;;;20.92;11.12;;;;;;;23.22;56.57;157243.31;1693664;82;21166;-80
2020/12/25 08:42:27;;;;;;;24.15;11.25;;;;;;;23.12;56.74;157216.81;1740999;82;21296;-76
2020/12/25 08:45:05;;;;;;;22.30;11.90;;;;;;;23.27;56.12;157257.88;1732028;82;21458;-83
2020/12/25 08:47:37;;;;;;;21.27;11.03;;;;;;;23.23;56.52;157247.31;1735255;81;21391;-81
2020/12/25 08:50:10;;;;;;;19.57;10.70;;;;;;;23.10;56.71;157212.84;1728092;81;21377;-81
2020/12/25 08:52:43;;;;;;;25.43;11.35;;;;;;;23.19;56.63;157235.39;1732320;81;21381;-80
2020/12/25 08:55:19;;;;;;;21.65;11.75;;;;;;;23.22;56.92;157244.66;1745864;81;21426;-83
2020/12/25 08:57:54;;;;;;;25.88;11.22;;;;;;;23.20;56.62;157239.34;1725625;81;21324;-80
2020/12/25 09:00:27;;;;;;;19.77;10.90;;;;;;;23.23;56.72;157245.95;1743508;81;21372;-84
2020/12/25 09:02:59;;;;;;;20.65;11.15;;;;;;;23.43;55.16;157300.31;1743839;81;21938;-77
2020/12/25 09:05:33;;;;;;;20.15;11.38;;;;;;;23.73;56.98;157379.83;1745937;81;21776;-76
2020/12/25 09:08:06;;;;;;;19.15;10.48;;;;;;;23.85;56.83;157413.06;1731573;82;21692;-74
2020/12/25 09:10:38;;;;;;;17.92;10.13;;;;;;;23.53;56.07;157326.81;1730506;81;21153;-78
2020/12/25 09:13:10;;;;;;;18.57;10.80;;;;;;;23.60;56.35;157345.41;1741779;81;21360;-76
2020/12/25 09:15:43;;;;;;;17.07;10.05;;;;;;;23.59;56.42;157341.39;1735325;81;21724;-77
2020/12/25 09:18:15;;;;;;;18.02;9.75;;;;;;;23.57;56.40;157336.08;1743341;81;21379;-79
2020/12/25 09:20:49;;;;;;;15.43;9.50;;;;;;;23.50;56.59;157318.84;1738351;80;21160;-76
2020/12/25 09:23:21;;;;;;;18.25;8.93;;;;;;;23.51;56.01;157320.20;1695152;82;21386;-77
2020/12/25 09:25:54;;;;;;;16.30;9.40;;;;;;;23.75;56.32;157386.55;1735799;81;21377;-77
2020/12/25 09:28:27;;;;;;;16.57;8.95;;;;;;;23.52;56.06;157324.16;1735533;81;21375;-78
2020/12/25 09:31:00;;;;;;;14.70;8.15;;;;;;;23.56;55.62;157334.78;1740549;81;21383;-78
2020/12/25 09:33:32;;;;;;;14.23;7.78;;;;;;;23.54;55.39;157328.17;1743010;81;21355;-77
2020/12/25 09:36:06;;;;;;;15.48;9.20;;;;;;;23.55;56.22;157332.13;1744381;81;21150;-78
2020/12/25 09:38:46;;;;;;;16.00;8.15;;;;;;;23.31;54.69;157268.50;1756712;80;21403;-78
2020/12/25 09:41:18;;;;;;;14.80;7.28;;;;;;;23.58;56.68;157338.73;1754833;80;21808;-77
2020/12/25 09:43:50;;;;;;;14.65;7.72;;;;;;;23.66;56.77;157361.30;1754893;81;21840;-77
2020/12/25 09:46:23;;;;;;;10.63;6.45;;;;;;;23.97;55.94;157444.88;1773490;81;21383;-78
2020/12/25 09:48:55;;;;;;;13.22;6.95;;;;;;;24.06;56.49;157467.44;1751502;80;21709;-78
2020/12/25 09:51:27;;;;;;;14.95;7.05;;;;;;;24.26;56.33;157520.47;1767506;81;21356;-78
2020/12/25 09:54:00;;;;;;;11.40;5.47;;;;;;;24.30;56.47;157531.09;1758377;81;21410;-78
2020/12/25 09:56:32;;;;;;;11.83;6.92;;;;;;;24.20;55.54;157505.89;1747073;81;21300;-77
2020/12/25 09:59:07;;;;;;;10.08;6.83;;;;;;;24.41;56.05;157561.58;1757831;81;21368;-76
2020/12/25 10:01:38;;;;;;;11.15;6.47;;;;;;;24.40;55.30;157558.92;1760838;80;21316;-78
2020/12/25 10:04:13;;;;;;;10.40;6.75;;;;;;;24.63;56.40;157618.69;1743575;81;22667;-77
2020/12/25 10:06:46;;;;;;;11.28;7.03;;;;;;;24.35;54.63;157544.33;1775754;81;21230;-77
2020/12/25 10:09:18;;;;;;;13.08;6.70;;;;;;;24.67;56.53;157631.94;1773589;81;21170;-76
2020/12/25 10:11:55;;;;;;;12.78;7.15;;;;;;;24.76;56.18;157654.50;1750459;81;21225;-77
2020/12/25 10:14:28;;;;;;;12.37;6.92;;;;;;;24.81;56.45;157669.09;1752487;81;21883;-76
2020/12/25 10:17:00;;;;;;;11.40;6.62;;;;;;;25.03;55.74;157726.17;1761243;80;21784;-77
2020/12/25 10:19:34;;;;;;;11.65;6.87;;;;;;;25.43;55.33;157832.37;1728969;81;21716;-82
2020/12/25 10:22:06;;;;;;;12.55;7.22;;;;;;;24.95;53.63;157706.27;1715712;83;21741;-75
2020/12/25 10:24:38;;;;;;;10.80;6.35;;;;;;;24.67;53.62;157630.62;1737439;81;21166;-73
2020/12/25 10:27:11;;;;;;;10.78;6.28;;;;;;;25.22;56.44;157776.64;1762978;81;21324;-76
2020/12/25 10:29:44;;;;;;;8.68;5.47;;;;;;;25.39;54.93;157823.11;1742988;81;21233;-75
2020/12/25 10:32:16;;;;;;;11.33;6.47;;;;;;;26.08;56.16;158006.41;1745806;81;21356;-74
2020/12/25 10:34:48;;;;;;;13.50;6.70;;;;;;;26.54;53.50;158131.34;1706483;83;21412;-77
2020/12/25 10:37:21;;;;;;;15.70;7.90;;;;;;;26.74;53.83;158184.47;1707681;83;21226;-75
2020/12/25 10:39:53;;;;;;;10.72;6.72;;;;;;;26.79;54.03;158196.47;1714173;83;21414;-78
2020/12/25 10:42:25;;;;;;;13.60;8.55;;;;;;;26.46;51.98;158107.44;1725427;81;21841;-73
2020/12/25 10:44:58;;;;;;;12.00;7.15;;;;;;;26.52;52.45;158123.34;1721503;82;21917;-81
2020/12/25 10:47:30;;;;;;;12.98;8.30;;;;;;;26.82;53.34;158204.41;1727495;81;21196;-74
2020/12/25 10:50:02;;;;;;;11.48;6.85;;;;;;;27.22;54.04;158310.81;1711939;82;21260;-77
2020/12/25 10:52:35;;;;;;;11.53;7.00;;;;;;;27.44;54.52;158369.31;1720795;81;21169;-75
2020/12/25 10:55:08;;;;;;;11.48;6.90;;;;;;;26.70;51.88;158173.88;1729774;81;21536;-74
2020/12/25 10:57:40;;;;;;;11.70;7.58;;;;;;;26.81;55.75;158203.11;1716054;81;21182;-74
2020/12/25 11:00:12;;;;;;;13.72;8.10;;;;;;;26.68;52.79;158168.55;1712572;82;21922;-75
2020/12/25 11:02:45;;;;;;;9.60;6.65;;;;;;;27.26;54.71;158321.42;1718601;81;21175;-78
2020/12/25 11:05:17;;;;;;;9.93;6.17;;;;;;;27.43;54.44;158366.66;1723417;81;21331;-76
2020/12/25 11:07:49;;;;;;;9.15;5.97;;;;;;;27.11;54.12;158282.89;1709450;81;21230;-77
2020/12/25 11:10:22;;;;;;;10.85;6.45;;;;;;;27.01;52.10;158256.25;1713843;81;21229;-77
2020/12/25 11:12:55;;;;;;;9.40;5.37;;;;;;;27.08;52.43;158274.89;1722834;81;21379;-78
2020/12/25 11:15:27;;;;;;;10.05;6.10;;;;;;;27.30;54.54;158332.08;1724390;81;21216;-76
2020/12/25 11:17:59;;;;;;;9.48;5.55;;;;;;;27.03;51.06;158261.64;1723478;81;21229;-79
2020/12/25 11:20:32;;;;;;;9.03;5.37;;;;;;;26.92;51.57;158232.34;1707856;82;21228;-80
2020/12/25 11:23:08;;;;;;;10.35;6.30;;;;;;;26.48;52.41;158114.06;1729968;82;21285;-82
2020/12/25 11:25:40;;;;;;;9.58;5.55;;;;;;;26.18;54.17;158032.95;1718461;82;21228;-77
2020/12/25 11:28:19;;;;;;;9.38;5.30;;;;;;;25.86;54.23;157949.33;1720451;82;21763;-75
2020/12/25 11:30:51;;;;;;;8.30;5.42;;;;;;;25.43;51.83;157833.75;1714364;82;21185;-71
2020/12/25 11:33:26;;;;;;;11.48;6.70;;;;;;;25.29;54.27;157796.56;1693007;83;21234;-73
2020/12/25 11:35:57;;;;;;;8.78;5.37;;;;;;;25.00;53.68;157719.50;1691192;82;21208;-76
2020/12/25 11:38:30;;;;;;;8.65;5.58;;;;;;;24.65;54.09;157624.02;1714001;82;21225;-81
2020/12/25 11:41:05;;;;;;;9.88;6.00;;;;;;;25.01;54.81;157722.16;1727023;81;21227;-72
2020/12/25 11:43:38;;;;;;;12.35;6.78;;;;;;;25.29;54.56;157796.56;1726415;81;21792;-75